createdAt,value
2023-03-10T00:00:10.557Z,70.16
2023-03-10T00:01:09.549Z,71.47
2023-03-10T00:02:09.580Z,67.23
2023-03-10T00:03:09.577Z,69.10
2023-03-10T00:04:09.621Z,66.78
2023-03-10T00:05:09.570Z,67.05
2023-03-10T00:06:09.546Z,72.15
2023-03-10T00:07:09.485Z,68.16
2023-03-10T00:08:09.520Z,70.46
2023-03-10T00:09:09.476Z,71.21
2023-03-10T00:10:09.476Z,71.72
2023-03-10T00:11:09.548Z,69.94
2023-03-10T00:12:09.457Z,63.52
2023-03-10T00:13:09.470Z,67.93
2023-03-10T00:14:09.440Z,68.18
2023-03-10T00:15:09.423Z,65.60
2023-03-10T00:16:09.461Z,57.05
2023-03-10T00:17:09.357Z,69.72
2023-03-10T00:18:09.388Z,60.14
2023-03-10T00:19:09.419Z,67.51
2023-03-10T00:20:09.335Z,68.22
2023-03-10T00:21:09.353Z,68.48
2023-03-10T00:22:09.340Z,73.90
2023-03-10T00:23:09.324Z,69.39
2023-03-10T00:24:09.332Z,61.75
2023-03-10T00:25:09.295Z,60.26
2023-03-10T00:26:09.277Z,66.13
2023-03-10T00:27:09.299Z,58.43
2023-03-10T00:28:09.233Z,63.68
2023-03-10T00:29:09.321Z,62.96
2023-03-10T00:30:10.210Z,64.08
2023-03-10T00:31:09.262Z,75.25
2023-03-10T00:32:09.826Z,71.85
2023-03-10T00:33:09.177Z,65.15
2023-03-10T00:34:09.884Z,70.16
2023-03-10T00:35:09.177Z,66.73
2023-03-10T00:36:09.318Z,67.71
2023-03-10T00:37:09.126Z,55.57
2023-03-10T00:38:09.141Z,66.33
2023-03-10T00:39:11.712Z,63.56
2023-03-10T00:40:10.131Z,63.01
2023-03-10T00:41:09.118Z,56.34
2023-03-10T00:42:09.643Z,61.02
2023-03-10T00:43:09.113Z,65.99
2023-03-10T00:44:09.120Z,74.00
2023-03-10T00:45:09.084Z,66.02
2023-03-10T00:46:09.107Z,67.45
2023-03-10T00:47:09.050Z,69.26
2023-03-10T00:48:09.048Z,70.23
2023-03-10T00:49:09.110Z,63.85
2023-03-10T00:50:09.071Z,53.83
2023-03-10T00:51:09.060Z,62.28
2023-03-10T00:52:09.057Z,67.55
2023-03-10T00:53:09.049Z,68.40
2023-03-10T00:54:09.218Z,60.26
2023-03-10T00:55:09.013Z,66.72
2023-03-10T00:56:08.982Z,60.64
2023-03-10T00:57:08.959Z,72.72
2023-03-10T00:58:08.966Z,66.03
2023-03-10T00:59:11.590Z,50.49
2023-03-10T01:00:14.652Z,59.40
2023-03-10T01:01:10.868Z,66.96
2023-03-10T01:02:14.699Z,70.76
2023-03-10T01:03:11.835Z,69.60
2023-03-10T01:04:10.445Z,66.72
2023-03-10T01:05:11.026Z,67.81
2023-03-10T01:06:14.018Z,63.87
2023-03-10T01:07:11.522Z,60.89
2023-03-10T01:08:13.066Z,60.24
2023-03-10T01:09:12.150Z,67.58
2023-03-10T01:10:12.492Z,65.68
2023-03-10T01:11:11.903Z,65.86
2023-03-10T01:12:11.994Z,55.97
2023-03-10T01:13:12.871Z,58.23
2023-03-10T01:14:13.534Z,64.97
2023-03-10T01:15:10.691Z,69.49
2023-03-10T01:16:11.495Z,61.60
2023-03-10T01:17:12.045Z,60.35
2023-03-10T01:18:09.531Z,69.62
2023-03-10T01:19:12.970Z,64.46
2023-03-10T01:20:42.530Z,63.70
2023-03-10T01:21:11.126Z,57.37
2023-03-10T01:22:09.090Z,64.66
2023-03-10T01:23:10.223Z,72.24
2023-03-10T01:24:08.758Z,55.34
2023-03-10T01:25:11.573Z,53.04
2023-03-10T01:26:08.672Z,68.00
2023-03-10T01:27:10.539Z,71.19
2023-03-10T01:28:08.610Z,66.85
2023-03-10T01:29:10.849Z,67.67
2023-03-10T01:30:08.621Z,61.98
2023-03-10T01:31:09.736Z,62.19
2023-03-10T01:32:09.844Z,49.34
2023-03-10T01:33:08.504Z,56.40
2023-03-10T01:34:08.590Z,71.28
2023-03-10T01:35:09.350Z,69.35
2023-03-10T01:36:09.725Z,68.10
2023-03-10T01:37:08.498Z,66.13
2023-03-10T01:38:09.630Z,74.65
2023-03-10T01:39:08.512Z,61.02
2023-03-10T01:40:08.598Z,54.62
2023-03-10T01:41:08.450Z,74.04
2023-03-10T01:42:08.431Z,72.49
2023-03-10T01:43:08.468Z,69.42
2023-03-10T01:44:08.463Z,61.29
2023-03-10T01:45:08.472Z,71.93
2023-03-10T01:46:08.500Z,60.86
2023-03-10T01:47:08.393Z,66.14
2023-03-10T01:48:08.375Z,68.69
2023-03-10T01:49:08.336Z,67.21
2023-03-10T01:50:08.316Z,69.51
2023-03-10T01:51:08.342Z,69.37
2023-03-10T01:52:08.287Z,71.00
2023-03-10T01:53:08.294Z,69.72
2023-03-10T01:54:08.352Z,59.02
2023-03-10T01:55:08.280Z,64.17
2023-03-10T01:56:08.282Z,67.37
2023-03-10T01:57:08.249Z,67.71
2023-03-10T01:58:08.235Z,69.59
2023-03-10T01:59:08.256Z,72.37
2023-03-10T02:00:09.377Z,72.66
2023-03-10T02:01:08.986Z,63.76
2023-03-10T02:02:08.234Z,55.15
2023-03-10T02:03:08.176Z,71.13
2023-03-10T02:04:08.146Z,72.34
2023-03-10T02:05:08.115Z,64.82
2023-03-10T02:06:08.194Z,55.99
2023-03-10T02:07:08.114Z,64.92
2023-03-10T02:08:08.175Z,71.69
2023-03-10T02:09:08.114Z,69.15
2023-03-10T02:10:08.162Z,69.16
2023-03-10T02:11:08.108Z,71.21
2023-03-10T02:12:08.076Z,63.58
2023-03-10T02:13:08.086Z,71.36
2023-03-10T02:14:08.152Z,69.46
2023-03-10T02:15:08.043Z,58.25
2023-03-10T02:16:08.141Z,66.65
2023-03-10T02:17:08.398Z,68.07
2023-03-10T02:18:08.037Z,68.39
2023-03-10T02:19:07.990Z,63.31
2023-03-10T02:20:08.163Z,73.80
2023-03-10T02:21:08.027Z,66.66
2023-03-10T02:22:08.352Z,66.96
2023-03-10T02:23:08.583Z,68.22
2023-03-10T02:24:08.028Z,53.27
2023-03-10T02:25:07.960Z,64.97
2023-03-10T02:26:08.828Z,56.79
2023-03-10T02:27:07.917Z,59.59
2023-03-10T02:28:07.958Z,67.79
2023-03-10T02:29:07.891Z,61.15
2023-03-10T02:30:07.833Z,67.20
2023-03-10T02:31:08.992Z,61.24
2023-03-10T02:32:07.866Z,67.35
2023-03-10T02:33:07.920Z,68.50
2023-03-10T02:34:07.852Z,68.77
2023-03-10T02:35:07.807Z,55.37
2023-03-10T02:36:07.867Z,64.47
2023-03-10T02:37:07.921Z,67.48
2023-03-10T02:38:07.822Z,70.98
2023-03-10T02:39:07.947Z,71.56
2023-03-10T02:40:07.799Z,63.86
2023-03-10T02:41:07.742Z,64.80
2023-03-10T02:42:07.726Z,68.22
2023-03-10T02:43:08.692Z,67.17
2023-03-10T02:44:07.782Z,67.60
2023-03-10T02:45:07.719Z,68.68
2023-03-10T02:46:07.768Z,63.26
2023-03-10T02:47:07.857Z,69.41
2023-03-10T02:48:07.647Z,73.08
2023-03-10T02:49:07.662Z,66.92
2023-03-10T02:50:07.999Z,58.74
2023-03-10T02:51:07.601Z,69.48
2023-03-10T02:52:07.645Z,67.80
2023-03-10T02:53:07.637Z,66.43
2023-03-10T02:54:07.600Z,66.36
2023-03-10T02:55:07.561Z,60.83
2023-03-10T02:56:08.171Z,63.97
2023-03-10T02:57:07.564Z,50.60
2023-03-10T02:58:07.757Z,65.64
2023-03-10T02:59:07.562Z,62.09
2023-03-10T03:00:07.546Z,67.09
2023-03-10T03:01:07.530Z,62.94
2023-03-10T03:02:10.367Z,67.82
2023-03-10T03:03:07.543Z,72.18
2023-03-10T03:04:07.559Z,62.53
2023-03-10T03:05:08.361Z,67.90
2023-03-10T03:06:07.480Z,66.44
2023-03-10T03:07:07.421Z,63.35
2023-03-10T03:08:07.425Z,73.49
2023-03-10T03:09:07.467Z,71.37
2023-03-10T03:10:07.414Z,68.98
2023-03-10T03:11:07.412Z,68.48
2023-03-10T03:12:07.389Z,73.25
2023-03-10T03:13:07.403Z,68.48
2023-03-10T03:14:07.367Z,63.73
2023-03-10T03:15:07.335Z,65.64
2023-03-10T03:16:07.792Z,69.65
2023-03-10T03:17:07.328Z,71.93
2023-03-10T03:18:07.348Z,68.41
2023-03-10T03:19:07.349Z,63.91
2023-03-10T03:20:07.272Z,72.86
2023-03-10T03:21:07.308Z,72.12
2023-03-10T03:22:07.316Z,71.04
2023-03-10T03:23:07.298Z,67.82
2023-03-10T03:24:07.302Z,70.38
2023-03-10T03:25:07.223Z,61.48
2023-03-10T03:26:07.213Z,73.16
2023-03-10T03:27:08.208Z,60.30
2023-03-10T03:28:07.191Z,64.05
2023-03-10T03:29:07.146Z,71.45
2023-03-10T03:30:07.200Z,63.39
2023-03-10T03:31:07.134Z,73.05
2023-03-10T03:32:07.236Z,73.79
2023-03-10T03:33:07.118Z,65.61
2023-03-10T03:34:07.144Z,74.25
2023-03-10T03:35:07.103Z,58.74
2023-03-10T03:36:07.171Z,68.15
2023-03-10T03:37:07.072Z,72.34
2023-03-10T03:38:07.135Z,72.79
2023-03-10T03:39:07.085Z,70.59
2023-03-10T03:40:08.046Z,69.35
2023-03-10T03:41:07.077Z,72.93
2023-03-10T03:42:07.008Z,71.21
2023-03-10T03:43:06.994Z,72.03
2023-03-10T03:44:08.063Z,62.49
2023-03-10T03:45:06.972Z,71.69
2023-03-10T03:46:07.062Z,67.71
2023-03-10T03:47:07.108Z,68.52
2023-03-10T03:48:06.979Z,64.86
2023-03-10T03:49:06.952Z,72.02
2023-03-10T03:50:06.955Z,72.13
2023-03-10T03:51:06.941Z,68.06
2023-03-10T03:52:06.935Z,72.00
2023-03-10T03:53:06.912Z,63.01
2023-03-10T03:54:07.324Z,68.35
2023-03-10T03:55:06.921Z,70.29
2023-03-10T03:56:06.832Z,72.47
2023-03-10T03:57:06.894Z,67.91
2023-03-10T03:58:06.837Z,72.80
2023-03-10T03:59:06.858Z,69.16
2023-03-10T04:00:06.877Z,73.37
2023-03-10T04:01:06.845Z,74.73
2023-03-10T04:02:07.031Z,71.58
2023-03-10T04:03:06.818Z,71.58
2023-03-10T04:04:06.808Z,73.80
2023-03-10T04:05:07.881Z,76.74
2023-03-10T04:06:06.735Z,75.27
2023-03-10T04:07:06.803Z,71.75
2023-03-10T04:08:06.696Z,77.16
2023-03-10T04:09:06.697Z,74.94
2023-03-10T04:10:06.713Z,75.88
2023-03-10T04:11:07.356Z,73.37
2023-03-10T04:12:06.688Z,71.09
2023-03-10T04:13:06.675Z,75.30
2023-03-10T04:14:06.637Z,76.35
2023-03-10T04:15:06.689Z,76.40
2023-03-10T04:16:06.713Z,71.06
2023-03-10T04:17:06.662Z,73.97
2023-03-10T04:18:07.626Z,74.82
2023-03-10T04:19:06.579Z,73.30
2023-03-10T04:20:07.999Z,74.54
2023-03-10T04:21:07.630Z,77.50
2023-03-10T04:22:07.328Z,75.08
2023-03-10T04:23:06.579Z,77.05
2023-03-10T04:24:06.512Z,76.29
2023-03-10T04:25:06.550Z,76.29
2023-03-10T04:26:06.502Z,76.48
2023-03-10T04:27:06.493Z,74.55
2023-03-10T04:28:06.514Z,76.03
2023-03-10T04:29:06.531Z,75.26
2023-03-10T04:30:06.508Z,77.23
2023-03-10T04:31:06.535Z,74.16
2023-03-10T04:32:06.485Z,75.71
2023-03-10T04:33:06.462Z,75.49
2023-03-10T04:34:06.448Z,76.95
2023-03-10T04:35:06.409Z,77.51
2023-03-10T04:36:06.520Z,74.91
2023-03-10T04:37:07.318Z,76.68
2023-03-10T04:38:06.413Z,77.39
2023-03-10T04:39:06.366Z,75.52
2023-03-10T04:40:06.454Z,77.35
2023-03-10T04:41:06.378Z,75.48
2023-03-10T04:42:06.391Z,78.56
2023-03-10T04:43:06.339Z,77.63
2023-03-10T04:44:06.368Z,79.05
2023-03-10T04:45:06.328Z,78.25
2023-03-10T04:46:07.346Z,78.06
2023-03-10T04:47:06.333Z,75.71
2023-03-10T04:48:06.407Z,78.62
2023-03-10T04:49:06.284Z,77.69
2023-03-10T04:50:06.290Z,78.83
2023-03-10T04:51:06.237Z,77.77
2023-03-10T04:52:06.252Z,77.69
2023-03-10T04:53:06.200Z,77.24
2023-03-10T04:54:07.210Z,76.74
2023-03-10T04:55:06.202Z,78.49
2023-03-10T04:56:06.161Z,77.82
2023-03-10T04:57:06.214Z,77.07
2023-03-10T04:58:06.202Z,77.12
2023-03-10T04:59:07.382Z,75.99
2023-03-10T05:00:06.264Z,76.33
2023-03-10T05:01:06.170Z,79.16
2023-03-10T05:02:06.261Z,77.09
2023-03-10T05:03:06.121Z,79.16
2023-03-10T05:04:06.225Z,76.63
2023-03-10T05:05:06.039Z,74.30
2023-03-10T05:06:06.963Z,76.95
2023-03-10T05:07:06.150Z,76.99
2023-03-10T05:08:06.076Z,79.16
2023-03-10T05:09:06.100Z,76.62
2023-03-10T05:10:06.080Z,78.31
2023-03-10T05:11:06.078Z,77.67
2023-03-10T05:12:06.603Z,78.70
2023-03-10T05:13:07.061Z,77.81
2023-03-10T05:14:06.014Z,77.48
2023-03-10T05:15:05.952Z,78.04
2023-03-10T05:16:05.989Z,78.73
2023-03-10T05:17:06.026Z,77.48
2023-03-10T05:18:05.982Z,77.43
2023-03-10T05:19:05.954Z,77.36
2023-03-10T05:20:05.941Z,77.10
2023-03-10T05:21:05.917Z,78.77
2023-03-10T05:22:05.968Z,80.43
2023-03-10T05:23:05.938Z,76.23
2023-03-10T05:24:05.889Z,76.68
2023-03-10T05:25:05.906Z,78.12
2023-03-10T05:26:05.937Z,78.25
2023-03-10T05:27:05.889Z,78.89
2023-03-10T05:28:05.922Z,78.46
2023-03-10T05:29:05.843Z,78.51
2023-03-10T05:30:05.813Z,78.39
2023-03-10T05:31:05.833Z,76.91
2023-03-10T05:32:05.789Z,77.84
2023-03-10T05:33:05.819Z,79.50
2023-03-10T05:34:05.769Z,78.45
2023-03-10T05:35:05.761Z,78.48
2023-03-10T05:36:06.918Z,80.97
2023-03-10T05:37:05.815Z,79.64
2023-03-10T05:38:05.713Z,79.05
2023-03-10T05:39:05.723Z,78.66
2023-03-10T05:40:06.313Z,79.40
2023-03-10T05:41:05.658Z,79.39
2023-03-10T05:42:05.783Z,78.98
2023-03-10T05:43:05.664Z,79.01
2023-03-10T05:44:05.677Z,79.97
2023-03-10T05:45:05.660Z,78.33
2023-03-10T05:46:05.690Z,79.59
2023-03-10T05:47:05.833Z,79.43
2023-03-10T05:48:05.647Z,79.84
2023-03-10T05:49:05.619Z,77.97
2023-03-10T05:50:05.605Z,79.21
2023-03-10T05:51:05.567Z,81.18
2023-03-10T05:52:05.523Z,78.26
2023-03-10T05:53:05.564Z,79.27
2023-03-10T05:54:05.554Z,78.33
2023-03-10T05:55:06.544Z,79.17
2023-03-10T05:56:05.520Z,79.41
2023-03-10T05:57:05.551Z,79.35
2023-03-10T05:58:05.575Z,79.15
2023-03-10T05:59:05.515Z,78.31
2023-03-10T06:00:05.473Z,80.52
2023-03-10T06:01:06.268Z,78.26
2023-03-10T06:02:05.468Z,78.88
2023-03-10T06:03:05.550Z,78.35
2023-03-10T06:04:05.456Z,77.48
2023-03-10T06:05:05.421Z,77.57
2023-03-10T06:06:05.412Z,78.15
2023-03-10T06:07:05.370Z,78.89
2023-03-10T06:08:05.388Z,78.06
2023-03-10T06:09:05.349Z,79.16
2023-03-10T06:10:05.398Z,78.82
2023-03-10T06:11:05.366Z,79.74
2023-03-10T06:12:05.341Z,77.91
2023-03-10T06:13:05.316Z,79.23
2023-03-10T06:14:05.354Z,78.84
2023-03-10T06:15:05.316Z,79.68
2023-03-10T06:16:05.339Z,79.17
2023-03-10T06:17:05.304Z,79.94
2023-03-10T06:18:05.273Z,79.65
2023-03-10T06:19:05.954Z,79.37
2023-03-10T06:20:05.278Z,80.36
2023-03-10T06:21:06.285Z,79.07
2023-03-10T06:22:05.221Z,79.94
2023-03-10T06:23:05.220Z,79.48
2023-03-10T06:24:05.226Z,79.16
2023-03-10T06:25:05.802Z,79.34
2023-03-10T06:26:05.197Z,80.29
2023-03-10T06:27:05.151Z,79.06
2023-03-10T06:28:05.660Z,77.94
2023-03-10T06:29:05.129Z,79.44
2023-03-10T06:30:05.145Z,79.63
2023-03-10T06:31:05.826Z,78.45
2023-03-10T06:32:05.135Z,78.58
2023-03-10T06:33:05.199Z,80.98
2023-03-10T06:34:05.085Z,79.81
2023-03-10T06:35:05.120Z,79.84
2023-03-10T06:36:05.369Z,79.98
2023-03-10T06:37:05.326Z,79.35
2023-03-10T06:38:05.031Z,79.07
2023-03-10T06:39:05.034Z,80.47
2023-03-10T06:40:05.120Z,80.08
2023-03-10T06:41:05.026Z,78.63
2023-03-10T06:42:05.030Z,80.07
2023-03-10T06:43:05.028Z,80.36
2023-03-10T06:44:04.942Z,79.67
2023-03-10T06:45:04.973Z,79.75
2023-03-10T06:46:05.413Z,78.07
2023-03-10T06:47:04.914Z,77.73
2023-03-10T06:48:04.987Z,79.83
2023-03-10T06:49:04.944Z,79.76
2023-03-10T06:50:05.265Z,80.22
2023-03-10T06:51:04.939Z,79.46
2023-03-10T06:52:05.838Z,78.78
2023-03-10T06:53:04.845Z,79.02
2023-03-10T06:54:04.868Z,75.94
2023-03-10T06:55:04.897Z,78.13
2023-03-10T06:56:04.807Z,78.16
2023-03-10T06:57:04.869Z,78.90
2023-03-10T06:58:04.865Z,78.69
2023-03-10T06:59:04.804Z,78.75
2023-03-10T07:00:04.803Z,78.01
2023-03-10T07:01:04.830Z,78.01
2023-03-10T07:02:05.760Z,78.11
2023-03-10T07:03:04.736Z,74.98
2023-03-10T07:04:04.789Z,76.59
2023-03-10T07:05:04.798Z,78.72
2023-03-10T07:06:04.702Z,78.25
2023-03-10T07:07:04.721Z,76.85
2023-03-10T07:08:05.011Z,77.71
2023-03-10T07:09:04.763Z,77.69
2023-03-10T07:10:07.007Z,76.80
2023-03-10T07:11:04.662Z,77.36
2023-03-10T07:12:04.658Z,76.60
2023-03-10T07:13:04.638Z,76.58
2023-03-10T07:14:04.672Z,76.29
2023-03-10T07:15:04.633Z,77.25
2023-03-10T07:16:04.607Z,78.01
2023-03-10T07:17:04.668Z,78.20
2023-03-10T07:18:04.621Z,78.47
2023-03-10T07:19:04.593Z,77.16
2023-03-10T07:20:04.543Z,77.71
2023-03-10T07:21:04.572Z,78.75
2023-03-10T07:22:04.584Z,78.44
2023-03-10T07:23:04.511Z,75.23
2023-03-10T07:24:04.517Z,76.54
2023-03-10T07:25:04.451Z,76.65
2023-03-10T07:26:04.796Z,77.41
2023-03-10T07:27:04.829Z,77.20
2023-03-10T07:28:04.452Z,77.37
2023-03-10T07:29:04.505Z,77.76
2023-03-10T07:30:04.457Z,77.40
2023-03-10T07:31:04.517Z,76.76
2023-03-10T07:32:04.436Z,77.54
2023-03-10T07:33:04.423Z,77.45
2023-03-10T07:34:04.355Z,75.42
2023-03-10T07:35:05.738Z,78.00
2023-03-10T07:36:04.482Z,77.24
2023-03-10T07:37:04.541Z,77.29
2023-03-10T07:38:04.360Z,77.80
2023-03-10T07:39:04.401Z,78.12
2023-03-10T07:40:04.335Z,77.24
2023-03-10T07:41:04.346Z,77.37
2023-03-10T07:42:04.298Z,78.52
2023-03-10T07:43:04.398Z,76.22
2023-03-10T07:44:04.262Z,77.48
2023-03-10T07:45:04.318Z,77.40
2023-03-10T07:46:04.271Z,78.98
2023-03-10T07:47:04.240Z,78.27
2023-03-10T07:48:04.235Z,75.66
2023-03-10T07:49:04.315Z,77.54
2023-03-10T07:50:04.217Z,77.36
2023-03-10T07:51:04.379Z,77.93
2023-03-10T07:52:04.171Z,77.19
2023-03-10T07:53:04.176Z,77.63
2023-03-10T07:54:04.286Z,77.29
2023-03-10T07:55:04.179Z,75.87
2023-03-10T07:56:04.195Z,76.88
2023-03-10T07:57:04.127Z,76.98
2023-03-10T07:58:04.113Z,77.65
2023-03-10T07:59:04.136Z,77.87
2023-03-10T08:00:04.151Z,79.10
2023-03-10T08:01:04.088Z,77.02
2023-03-10T08:02:04.040Z,78.47
2023-03-10T08:03:04.076Z,75.23
2023-03-10T08:04:04.207Z,77.50
2023-03-10T08:05:04.113Z,76.94
2023-03-10T08:06:04.004Z,78.59
2023-03-10T08:07:04.009Z,79.22
2023-03-10T08:08:03.987Z,76.62
2023-03-10T08:09:04.053Z,75.77
2023-03-10T08:10:04.604Z,76.99
2023-03-10T08:11:04.215Z,77.52
2023-03-10T08:12:04.075Z,79.00
2023-03-10T08:13:04.135Z,76.91
2023-03-10T08:14:06.710Z,79.43
2023-03-10T08:15:04.475Z,78.30
2023-03-10T08:16:08.276Z,78.42
2023-03-10T08:17:05.668Z,79.70
2023-03-10T08:18:04.656Z,77.68
2023-03-10T08:19:04.848Z,78.11
2023-03-10T08:20:07.251Z,78.09
2023-03-10T08:21:05.365Z,74.86
2023-03-10T08:22:05.052Z,74.97
2023-03-10T08:23:06.047Z,75.27
2023-03-10T08:24:04.837Z,76.68
2023-03-10T08:25:04.333Z,77.19
2023-03-10T08:26:04.003Z,77.70
2023-03-10T08:27:04.308Z,78.25
2023-03-10T08:28:07.097Z,80.01
2023-03-10T08:29:04.988Z,76.86
2023-03-10T08:30:03.743Z,78.43
2023-03-10T08:31:05.561Z,77.41
2023-03-10T08:32:04.841Z,76.74
2023-03-10T08:33:03.811Z,77.96
2023-03-10T08:34:03.683Z,77.97
2023-03-10T08:35:04.068Z,77.08
2023-03-10T08:36:04.019Z,77.76
2023-03-10T08:37:05.148Z,77.72
2023-03-10T08:38:03.772Z,77.87
2023-03-10T08:39:05.922Z,77.95
2023-03-10T08:40:03.972Z,77.53
2023-03-10T08:41:05.761Z,78.34
2023-03-10T08:42:04.949Z,77.87
2023-03-10T08:43:04.920Z,76.17
2023-03-10T08:44:04.921Z,77.32
2023-03-10T08:45:03.563Z,77.74
2023-03-10T08:46:08.376Z,77.62
2023-03-10T08:47:03.629Z,75.65
2023-03-10T08:48:04.597Z,76.99
2023-03-10T08:49:03.557Z,77.47
2023-03-10T08:50:05.554Z,75.76
2023-03-10T08:51:04.497Z,75.73
2023-03-10T08:52:04.568Z,77.72
2023-03-10T08:53:05.623Z,78.10
2023-03-10T08:54:03.553Z,77.24
2023-03-10T08:55:03.472Z,76.90
2023-03-10T08:56:03.431Z,77.65
2023-03-10T08:57:03.488Z,76.09
2023-03-10T08:58:03.447Z,77.82
2023-03-10T08:59:03.455Z,77.49
2023-03-10T09:00:03.465Z,78.50
2023-03-10T09:01:04.340Z,74.20
2023-03-10T09:02:03.594Z,75.93
2023-03-10T09:03:03.428Z,75.76
2023-03-10T09:04:03.348Z,77.39
2023-03-10T09:05:03.376Z,77.71
2023-03-10T09:06:03.398Z,78.57
2023-03-10T09:07:03.365Z,78.02
2023-03-10T09:08:03.502Z,75.46
2023-03-10T09:09:03.314Z,78.89
2023-03-10T09:10:03.278Z,78.23
2023-03-10T09:11:03.273Z,76.48
2023-03-10T09:12:03.324Z,76.64
2023-03-10T09:13:13.764Z,77.20
2023-03-10T09:14:05.289Z,76.19
2023-03-10T09:15:03.775Z,76.01
2023-03-10T09:16:03.302Z,76.14
2023-03-10T09:17:03.219Z,77.59
2023-03-10T09:18:03.208Z,75.68
2023-03-10T09:19:03.245Z,76.67
2023-03-10T09:20:03.202Z,76.82
2023-03-10T09:21:03.806Z,76.59
2023-03-10T09:22:03.126Z,77.57
2023-03-10T09:23:03.127Z,76.31
2023-03-10T09:24:03.168Z,73.18
2023-03-10T09:25:03.135Z,78.66
2023-03-10T09:26:03.827Z,77.18
2023-03-10T09:27:03.128Z,78.24
2023-03-10T09:28:03.137Z,76.03
2023-03-10T09:29:03.056Z,73.80
2023-03-10T09:30:03.040Z,77.03
2023-03-10T09:31:03.036Z,75.12
2023-03-10T09:32:03.085Z,76.20
2023-03-10T09:33:03.024Z,78.42
2023-03-10T09:34:03.277Z,76.35
2023-03-10T09:35:02.992Z,75.76
2023-03-10T09:36:07.374Z,77.91
2023-03-10T09:37:03.964Z,75.15
2023-03-10T09:38:03.017Z,76.45
2023-03-10T09:39:02.992Z,77.98
2023-03-10T09:40:05.226Z,76.52
2023-03-10T09:41:02.938Z,76.80
2023-03-10T09:42:02.926Z,76.83
2023-03-10T09:43:02.900Z,79.11
2023-03-10T09:44:02.914Z,77.66
2023-03-10T09:45:02.880Z,76.58
2023-03-10T09:46:02.925Z,77.90
2023-03-10T09:47:03.104Z,77.35
2023-03-10T09:48:04.823Z,77.10
2023-03-10T09:49:02.840Z,78.19
2023-03-10T09:50:02.790Z,76.95
2023-03-10T09:51:02.944Z,77.93
2023-03-10T09:52:02.845Z,76.60
2023-03-10T09:53:05.330Z,76.65
2023-03-10T09:54:03.257Z,77.09
2023-03-10T09:55:02.931Z,76.23
2023-03-10T09:56:02.861Z,78.34
2023-03-10T09:57:03.491Z,79.52
2023-03-10T09:58:04.082Z,77.24
2023-03-10T09:59:04.926Z,77.83
2023-03-10T10:00:02.836Z,76.65
2023-03-10T10:01:02.666Z,78.56
2023-03-10T10:02:02.746Z,76.66
2023-03-10T10:03:02.876Z,76.56
2023-03-10T10:04:03.804Z,75.84
2023-03-10T10:05:04.035Z,76.38
2023-03-10T10:06:03.703Z,75.73
2023-03-10T10:07:02.699Z,77.68
2023-03-10T10:08:02.706Z,77.08
2023-03-10T10:09:04.955Z,77.48
2023-03-10T10:10:03.622Z,78.05
2023-03-10T10:11:02.670Z,76.73
2023-03-10T10:12:02.630Z,77.30
2023-03-10T10:13:02.582Z,77.33
2023-03-10T10:14:02.632Z,76.86
2023-03-10T10:15:02.867Z,75.26
2023-03-10T10:16:21.299Z,76.74
2023-03-10T10:17:04.784Z,76.86
2023-03-10T10:18:12.131Z,76.01
2023-03-10T10:19:04.546Z,74.23
2023-03-10T10:20:02.589Z,77.50
2023-03-10T10:21:02.513Z,76.75
2023-03-10T10:22:03.443Z,77.77
2023-03-10T10:23:02.869Z,76.07
2023-03-10T10:24:02.516Z,76.89
2023-03-10T10:25:02.448Z,78.48
2023-03-10T10:26:02.788Z,77.15
2023-03-10T10:27:03.443Z,76.62
2023-03-10T10:28:02.831Z,78.86
2023-03-10T10:29:02.373Z,77.56
2023-03-10T10:30:02.444Z,77.34
2023-03-10T10:31:02.538Z,76.57
2023-03-10T10:32:02.358Z,76.97
2023-03-10T10:33:02.354Z,77.39
2023-03-10T10:34:02.391Z,75.96
2023-03-10T10:35:02.365Z,75.50
2023-03-10T10:36:02.409Z,75.91
2023-03-10T10:37:02.299Z,76.30
2023-03-10T10:38:02.322Z,76.95
2023-03-10T10:39:02.300Z,77.13
2023-03-10T10:40:02.352Z,77.23
2023-03-10T10:41:03.203Z,74.23
2023-03-10T10:42:02.349Z,77.35
2023-03-10T10:43:02.274Z,76.90
2023-03-10T10:44:02.954Z,76.52
2023-03-10T10:45:02.301Z,75.20
2023-03-10T10:46:02.359Z,77.02
2023-03-10T10:47:02.264Z,75.44
2023-03-10T10:48:02.195Z,78.43
2023-03-10T10:49:02.189Z,77.07
2023-03-10T10:50:02.259Z,78.24
2023-03-10T10:51:02.164Z,76.82
2023-03-10T10:52:02.268Z,77.40
2023-03-10T10:53:02.176Z,75.77
2023-03-10T10:54:02.647Z,77.20
2023-03-10T10:55:02.308Z,76.65
2023-03-10T10:56:02.190Z,77.57
2023-03-10T10:57:02.095Z,76.66
2023-03-10T10:58:02.143Z,76.57
2023-03-10T10:59:02.158Z,78.20
2023-03-10T11:00:02.308Z,77.53
2023-03-10T11:01:02.788Z,78.13
2023-03-10T11:02:02.439Z,77.77
2023-03-10T11:03:02.059Z,76.37
2023-03-10T11:04:02.004Z,78.43
2023-03-10T11:05:02.126Z,76.80
2023-03-10T11:06:03.211Z,77.18
2023-03-10T11:07:02.333Z,77.66
2023-03-10T11:08:02.142Z,77.82
2023-03-10T11:09:01.961Z,78.16
2023-03-10T11:10:02.023Z,78.69
2023-03-10T11:11:01.926Z,77.13
2023-03-10T11:12:02.075Z,77.83
2023-03-10T11:13:02.661Z,78.32
2023-03-10T11:14:02.834Z,77.87
2023-03-10T11:15:02.110Z,78.51
2023-03-10T11:16:02.430Z,78.88
2023-03-10T11:17:02.542Z,77.78
2023-03-10T11:18:02.157Z,77.64
2023-03-10T11:19:01.894Z,79.13
2023-03-10T11:20:02.034Z,79.10
2023-03-10T11:21:01.879Z,76.79
2023-03-10T11:22:01.846Z,78.09
2023-03-10T11:23:01.943Z,79.17
2023-03-10T11:24:01.895Z,78.06
2023-03-10T11:25:01.824Z,78.35
2023-03-10T11:26:01.923Z,78.90
2023-03-10T11:27:03.288Z,77.12
2023-03-10T11:28:03.268Z,77.55
2023-03-10T11:29:01.846Z,77.10
2023-03-10T11:30:01.895Z,78.08
2023-03-10T11:31:01.856Z,77.87
2023-03-10T11:32:01.744Z,78.29
2023-03-10T11:33:01.791Z,79.41
2023-03-10T11:34:01.722Z,77.68
2023-03-10T11:35:01.763Z,78.26
2023-03-10T11:36:02.028Z,78.22
2023-03-10T11:37:02.791Z,78.04
2023-03-10T11:38:01.709Z,76.58
2023-03-10T11:39:01.748Z,76.93
2023-03-10T11:40:01.732Z,76.87
2023-03-10T11:41:01.633Z,78.63
2023-03-10T11:42:01.691Z,77.56
2023-03-10T11:43:01.649Z,77.36
2023-03-10T11:44:01.807Z,77.75
2023-03-10T11:45:01.581Z,78.27
2023-03-10T11:46:01.662Z,79.50
2023-03-10T11:47:01.626Z,77.96
2023-03-10T11:48:02.753Z,79.46
2023-03-10T11:49:03.549Z,78.88
2023-03-10T11:50:04.675Z,77.30
2023-03-10T11:51:02.368Z,76.62
2023-03-10T11:52:01.539Z,78.07
2023-03-10T11:53:01.516Z,77.82
2023-03-10T11:54:01.510Z,80.60
2023-03-10T11:55:01.495Z,78.09
2023-03-10T11:56:01.536Z,77.36
2023-03-10T11:57:03.311Z,78.58
2023-03-10T11:58:01.474Z,77.32
2023-03-10T11:59:01.422Z,77.34
2023-03-10T12:00:01.471Z,77.65
2023-03-10T12:01:01.361Z,78.64
2023-03-10T12:02:01.423Z,78.38
2023-03-10T12:03:01.642Z,77.35
2023-03-10T12:04:01.443Z,77.48
2023-03-10T12:05:01.420Z,76.55
2023-03-10T12:06:01.519Z,76.98
2023-03-10T12:07:01.383Z,77.82
2023-03-10T12:08:01.329Z,78.48
2023-03-10T12:09:01.366Z,77.87
2023-03-10T12:10:02.582Z,79.27
2023-03-10T12:11:02.226Z,77.11
2023-03-10T12:12:01.263Z,79.03
2023-03-10T12:13:02.006Z,78.88
2023-03-10T12:14:01.307Z,77.40
2023-03-10T12:15:01.306Z,78.98
2023-03-10T12:16:01.264Z,77.33
2023-03-10T12:17:01.239Z,77.26
2023-03-10T12:18:01.207Z,78.00
2023-03-10T12:19:01.178Z,79.44
2023-03-10T12:20:01.160Z,78.76
2023-03-10T12:21:02.296Z,79.05
2023-03-10T12:22:01.119Z,78.44
2023-03-10T12:23:01.164Z,77.79
2023-03-10T12:24:01.312Z,76.58
2023-03-10T12:25:01.098Z,80.12
2023-03-10T12:26:01.077Z,78.41
2023-03-10T12:27:01.140Z,79.06
2023-03-10T12:28:01.078Z,76.86
2023-03-10T12:29:01.046Z,77.92
2023-03-10T12:30:01.147Z,77.07
2023-03-10T12:31:01.142Z,77.69
2023-03-10T12:32:01.152Z,77.48
2023-03-10T12:33:01.042Z,78.50
2023-03-10T12:34:01.083Z,76.98
2023-03-10T12:35:01.034Z,77.25
2023-03-10T12:36:01.110Z,79.13
2023-03-10T12:37:01.022Z,77.02
2023-03-10T12:38:00.982Z,77.85
2023-03-10T12:39:01.667Z,77.06
2023-03-10T12:40:00.983Z,77.54
2023-03-10T12:41:00.961Z,77.42
2023-03-10T12:42:00.968Z,78.02
2023-03-10T12:43:00.914Z,79.45
2023-03-10T12:44:00.908Z,79.26
2023-03-10T12:45:00.938Z,77.10
2023-03-10T12:46:01.020Z,77.14
2023-03-10T12:47:00.952Z,78.38
2023-03-10T12:48:00.863Z,76.49
2023-03-10T12:49:00.852Z,78.56
2023-03-10T12:50:00.837Z,80.44
2023-03-10T12:51:00.828Z,78.41
2023-03-10T12:52:01.624Z,78.99